createdAt,value
2023-05-05T00:02:54.876Z,615.30
2023-05-05T00:06:02.682Z,599.83
2023-05-05T00:09:10.816Z,739.60
2023-05-05T00:12:18.890Z,743.08
2023-05-05T00:15:27.419Z,791.05
2023-05-05T00:18:36.454Z,626.70
2023-05-05T00:21:44.515Z,640.90
2023-05-05T00:24:52.319Z,435.67
2023-05-05T00:28:00.409Z,609.80
2023-05-05T00:31:08.476Z,700.67
2023-05-05T00:34:17.657Z,687.15
2023-05-05T00:37:25.647Z,584.47
2023-05-05T00:40:33.653Z,529.05
2023-05-05T00:43:41.433Z,507.48
2023-05-05T00:46:49.596Z,484.35
2023-05-05T00:49:58.916Z,416.33
2023-05-05T00:53:07.586Z,388.35
2023-05-05T00:56:15.774Z,552.13
2023-05-05T00:59:23.774Z,455.13
2023-05-05T01:02:32.044Z,382.45
2023-05-05T01:05:47.204Z,453.02
2023-05-05T01:09:02.419Z,419.08
2023-05-05T01:12:27.821Z,393.33
2023-05-05T01:15:37.437Z,415.08
2023-05-05T01:18:47.832Z,552.30
2023-05-05T01:21:58.079Z,420.88
2023-05-05T01:25:54.535Z,456.40
2023-05-05T01:29:08.453Z,421.67
2023-05-05T01:32:19.174Z,408.90
2023-05-05T01:35:29.706Z,442.88
2023-05-05T01:38:40.414Z,402.92
2023-05-05T01:41:49.192Z,336.90
2023-05-05T01:44:57.032Z,543.30
2023-05-05T01:48:06.989Z,625.92
2023-05-05T01:51:14.964Z,490.73
2023-05-05T01:54:24.193Z,436.42
2023-05-05T01:57:32.684Z,539.38
2023-05-05T02:00:40.604Z,748.40
2023-05-05T02:03:51.086Z,390.67
2023-05-05T02:07:01.227Z,312.25
2023-05-05T02:10:10.150Z,546.67
2023-05-05T02:13:18.223Z,327.27
2023-05-05T02:16:26.614Z,555.15
2023-05-05T02:19:40.898Z,514.33
2023-05-05T02:22:48.796Z,708.15
2023-05-05T02:25:57.447Z,605.22
2023-05-05T02:29:07.426Z,450.98
2023-05-05T02:32:18.210Z,659.10
2023-05-05T02:35:29.784Z,452.23
2023-05-05T02:38:38.174Z,324.17
2023-05-05T02:41:46.347Z,403.92
2023-05-05T02:45:13.395Z,394.67
2023-05-05T02:48:24.368Z,361.23
2023-05-05T02:51:35.171Z,371.90
2023-05-05T02:54:48.901Z,346.60
2023-05-05T02:58:04.523Z,257.95
2023-05-05T03:01:20.437Z,236.43
2023-05-05T03:04:30.517Z,165.63
2023-05-05T03:07:42.045Z,190.38
2023-05-05T03:10:58.640Z,216.35
2023-05-05T03:14:08.859Z,188.32
2023-05-05T03:17:17.396Z,213.55
2023-05-05T03:20:26.372Z,206.82
2023-05-05T03:23:37.192Z,205.93
2023-05-05T03:26:49.804Z,292.40
2023-05-05T03:30:01.450Z,295.33
2023-05-05T03:33:11.413Z,245.80
2023-05-05T03:36:21.896Z,222.00
2023-05-05T03:39:32.010Z,179.40
2023-05-05T03:42:40.723Z,212.57
2023-05-05T03:45:50.528Z,164.82
2023-05-05T03:48:59.573Z,174.13
2023-05-05T03:52:09.034Z,208.75
2023-05-05T03:55:18.891Z,187.25
2023-05-05T03:58:26.921Z,166.05
2023-05-05T04:01:35.295Z,208.02
2023-05-05T04:04:43.382Z,213.50
2023-05-05T04:07:51.277Z,156.55
2023-05-05T04:11:02.388Z,141.95
2023-05-05T04:14:11.632Z,158.65
2023-05-05T04:17:19.772Z,127.72
2023-05-05T04:20:27.642Z,161.60
2023-05-05T04:23:37.131Z,164.48
2023-05-05T04:26:46.428Z,170.63
2023-05-05T04:29:54.927Z,190.43
2023-05-05T04:33:02.979Z,193.27
2023-05-05T04:36:11.477Z,176.95
2023-05-05T04:39:19.404Z,156.30
2023-05-05T04:42:28.682Z,172.88
2023-05-05T04:45:36.674Z,153.75
2023-05-05T04:48:44.538Z,229.68
2023-05-05T04:51:52.524Z,235.10
2023-05-05T04:55:01.127Z,209.82
2023-05-05T04:58:10.643Z,282.80
2023-05-05T05:01:18.822Z,314.55
2023-05-05T05:04:27.313Z,333.95
2023-05-05T05:07:35.536Z,396.88
2023-05-05T05:10:44.640Z,363.05
2023-05-05T05:13:54.155Z,404.65
2023-05-05T05:17:02.053Z,373.63
2023-05-05T05:20:10.788Z,353.42
2023-05-05T05:23:19.420Z,370.70
2023-05-05T05:26:28.174Z,432.08
2023-05-05T05:29:37.897Z,394.42
2023-05-05T05:32:47.183Z,398.55
2023-05-05T05:35:54.980Z,449.00
2023-05-05T05:39:03.470Z,361.58
2023-05-05T05:42:11.934Z,386.98
2023-05-05T05:45:22.807Z,431.30
2023-05-05T05:48:31.049Z,396.80
2023-05-05T05:51:40.052Z,417.42
2023-05-05T05:54:48.048Z,387.98
2023-05-05T05:57:55.931Z,419.77
2023-05-05T06:01:05.319Z,377.13
2023-05-05T06:04:13.578Z,415.55
2023-05-05T06:07:21.852Z,380.20
2023-05-05T06:10:29.985Z,357.92
2023-05-05T06:13:46.171Z,450.25
2023-05-05T06:16:55.636Z,445.65
2023-05-05T06:20:08.233Z,414.95
2023-05-05T06:23:16.494Z,434.90
2023-05-05T06:26:29.882Z,454.20
2023-05-05T06:29:38.039Z,413.83
2023-05-05T06:32:47.650Z,444.15
2023-05-05T06:35:55.584Z,469.25
2023-05-05T06:39:03.628Z,595.65
2023-05-05T06:42:11.469Z,806.10
2023-05-05T06:45:19.410Z,626.22
2023-05-05T06:48:28.562Z,726.63
2023-05-05T06:51:36.501Z,1011.85
2023-05-05T06:54:44.914Z,931.92
2023-05-05T06:57:52.799Z,814.03
2023-05-05T07:01:00.957Z,723.13
2023-05-05T07:04:10.361Z,608.97
2023-05-05T07:07:18.442Z,583.92
2023-05-05T07:10:26.937Z,624.40
2023-05-05T07:13:34.783Z,966.10
2023-05-05T07:16:42.927Z,969.03
2023-05-05T07:19:52.349Z,928.25
2023-05-05T07:23:00.568Z,902.15
2023-05-05T07:26:08.471Z,705.50
2023-05-05T07:29:16.771Z,645.63
2023-05-05T07:32:24.880Z,609.15
2023-05-05T07:35:34.070Z,527.10
2023-05-05T07:38:42.031Z,626.22
2023-05-05T07:41:50.070Z,588.83
2023-05-05T07:44:57.851Z,500.70
2023-05-05T07:48:05.797Z,454.42
2023-05-05T07:51:14.998Z,457.17
2023-05-05T07:54:22.984Z,383.50
2023-05-05T07:57:31.017Z,463.55
2023-05-05T08:00:39.070Z,483.27
2023-05-05T08:03:47.204Z,553.22
2023-05-05T08:06:56.429Z,614.00
2023-05-05T08:10:04.974Z,575.17
2023-05-05T08:13:13.649Z,447.83
2023-05-05T08:16:21.846Z,515.95
2023-05-05T08:19:29.821Z,578.40
2023-05-05T08:22:41.345Z,511.75
2023-05-05T08:25:49.190Z,543.63
2023-05-05T08:29:00.736Z,527.45
2023-05-05T08:32:08.511Z,593.03
2023-05-05T08:35:16.589Z,599.85
2023-05-05T08:38:25.820Z,779.97
2023-05-05T08:41:34.235Z,640.75
2023-05-05T08:44:42.482Z,423.48
2023-05-05T08:47:50.693Z,397.77
2023-05-05T08:51:01.372Z,293.98
2023-05-05T08:54:15.919Z,312.10
2023-05-05T08:57:26.382Z,308.75
2023-05-05T09:00:34.462Z,323.58
2023-05-05T09:03:42.409Z,354.58
2023-05-05T09:06:50.905Z,335.45
2023-05-05T09:10:00.190Z,331.92
2023-05-05T09:13:08.492Z,356.45
2023-05-05T09:16:16.394Z,380.17
2023-05-05T09:19:24.471Z,398.67
2023-05-05T09:22:36.885Z,414.38
2023-05-05T09:25:46.914Z,429.13
2023-05-05T09:28:54.929Z,460.52
2023-05-05T09:32:08.483Z,490.52
2023-05-05T09:35:16.850Z,543.58
2023-05-05T09:38:25.887Z,544.28
2023-05-05T09:41:42.113Z,567.25
2023-05-05T09:44:51.128Z,604.30
2023-05-05T09:48:00.591Z,549.70
2023-05-05T09:51:08.923Z,515.40
2023-05-05T09:54:26.296Z,581.95
2023-05-05T09:57:35.851Z,586.08
2023-05-05T10:00:44.106Z,602.30
2023-05-05T10:03:53.156Z,660.13
2023-05-05T10:07:01.138Z,725.55
2023-05-05T10:10:11.003Z,688.53
2023-05-05T10:13:21.518Z,771.47
2023-05-05T10:16:29.408Z,769.63
2023-05-05T10:19:37.314Z,670.42
2023-05-05T10:22:46.290Z,778.92
2023-05-05T10:25:56.470Z,580.67
2023-05-05T10:29:05.919Z,756.55
2023-05-05T10:32:46.692Z,737.97
2023-05-05T10:35:46.364Z,619.25
2023-05-05T10:38:56.240Z,570.00
2023-05-05T10:42:04.457Z,577.33
2023-05-05T10:45:13.473Z,559.72
2023-05-05T10:48:23.870Z,539.85
2023-05-05T10:51:40.330Z,520.05
2023-05-05T10:54:51.165Z,539.45
2023-05-05T10:57:58.902Z,538.97
2023-05-05T11:01:09.233Z,520.58
2023-05-05T11:04:20.879Z,569.25
2023-05-05T11:07:28.788Z,564.95
2023-05-05T11:10:45.239Z,591.25
2023-05-05T11:13:53.254Z,609.15
2023-05-05T11:17:02.755Z,635.17
2023-05-05T11:20:11.598Z,670.50
2023-05-05T11:23:22.929Z,784.80
2023-05-05T11:26:51.158Z,684.58
2023-05-05T11:30:06.652Z,677.25
2023-05-05T11:33:29.364Z,805.40
2023-05-05T11:36:41.477Z,674.63
2023-05-05T11:39:55.616Z,662.70
2023-05-05T11:43:07.298Z,710.13
2023-05-05T11:46:15.672Z,861.50
2023-05-05T11:49:28.947Z,769.83
2023-05-05T11:52:36.931Z,770.35
2023-05-05T11:55:44.949Z,943.63
2023-05-05T11:59:08.342Z,829.58
2023-05-05T12:05:26.486Z,700.42
2023-05-05T12:08:37.226Z,698.03
2023-05-05T12:11:49.706Z,706.70
2023-05-05T12:14:57.652Z,733.90
2023-05-05T12:18:06.463Z,761.45
2023-05-05T12:21:17.653Z,680.20
2023-05-05T12:24:25.786Z,496.23
2023-05-05T12:27:35.191Z,387.13
2023-05-05T12:30:43.130Z,371.52
2023-05-05T12:33:51.056Z,375.83
2023-05-05T12:37:00.564Z,472.95
2023-05-05T12:40:09.928Z,334.83
2023-05-05T12:43:29.347Z,414.55
2023-05-05T12:46:46.008Z,346.92
2023-05-05T12:49:54.110Z,372.10
2023-05-05T12:53:03.497Z,299.38
2023-05-05T12:56:36.413Z,478.05
2023-05-05T12:59:44.611Z,385.35
2023-05-05T13:02:53.067Z,461.88
2023-05-05T13:06:01.210Z,493.02
2023-05-05T13:09:10.980Z,420.95
2023-05-05T13:12:19.087Z,404.30
2023-05-05T13:15:27.523Z,382.88
2023-05-05T13:18:45.164Z,430.77
2023-05-05T13:21:53.112Z,411.92
2023-05-05T13:25:02.252Z,555.33
2023-05-05T13:28:10.331Z,500.65
2023-05-05T13:31:18.559Z,573.28
2023-05-05T13:34:26.647Z,594.25
2023-05-05T13:37:34.601Z,410.17
2023-05-05T13:40:43.748Z,643.40
2023-05-05T13:43:52.021Z,627.35
2023-05-05T13:47:00.349Z,648.55
2023-05-05T13:50:09.310Z,544.13
2023-05-05T13:53:17.471Z,437.33
2023-05-05T13:56:27.810Z,494.10
2023-05-05T13:59:35.822Z,414.02
2023-05-05T14:02:44.072Z,578.42
2023-05-05T14:05:52.323Z,413.13
2023-05-05T14:09:00.235Z,328.08
2023-05-05T14:12:09.820Z,306.58
2023-05-05T14:15:18.004Z,388.05
2023-05-05T14:18:25.855Z,262.48
2023-05-05T14:21:33.970Z,277.35
2023-05-05T14:24:41.838Z,318.55
2023-05-05T14:27:51.368Z,385.10
2023-05-05T14:30:59.112Z,568.80
2023-05-05T14:34:07.328Z,941.95
2023-05-05T14:37:15.538Z,987.35
2023-05-05T14:40:24.017Z,704.25
2023-05-05T14:43:33.374Z,830.78
2023-05-05T14:46:41.216Z,546.67
2023-05-05T14:49:49.245Z,515.85
2023-05-05T14:52:57.466Z,477.85
2023-05-05T14:56:06.062Z,522.42
2023-05-05T14:59:15.470Z,526.78
2023-05-05T15:02:23.764Z,652.90
2023-05-05T15:05:31.717Z,845.70
2023-05-05T15:08:39.797Z,467.20
2023-05-05T15:11:47.759Z,428.13
2023-05-05T15:14:57.139Z,739.22
2023-05-05T15:18:05.424Z,693.65
2023-05-05T15:21:13.318Z,685.22
2023-05-05T15:24:21.769Z,830.85
2023-05-05T15:27:30.089Z,763.20
2023-05-05T15:30:39.761Z,715.83
2023-05-05T15:33:48.537Z,445.65
2023-05-05T15:36:56.936Z,520.85
2023-05-05T15:40:06.401Z,559.72
2023-05-05T15:43:15.665Z,933.63
2023-05-05T15:46:26.238Z,788.33
2023-05-05T15:49:34.249Z,855.20
2023-05-05T15:52:42.323Z,957.85
2023-05-05T15:55:50.288Z,970.78
2023-05-05T15:58:58.472Z,608.00
2023-05-05T16:02:07.779Z,558.42
2023-05-05T16:05:15.970Z,446.90
2023-05-05T16:08:24.073Z,463.35
2023-05-05T16:11:32.245Z,549.88
2023-05-05T16:14:40.471Z,638.30
2023-05-05T16:17:49.865Z,925.75
2023-05-05T16:20:57.978Z,797.72
2023-05-05T16:24:06.784Z,768.20
2023-05-05T16:27:14.979Z,935.42
2023-05-05T16:30:23.006Z,974.40
2023-05-05T16:33:32.413Z,822.60
2023-05-05T16:36:41.230Z,547.10
2023-05-05T16:39:50.134Z,511.42
2023-05-05T16:42:57.909Z,456.52
2023-05-05T16:46:05.985Z,803.60
2023-05-05T16:49:15.606Z,756.50
2023-05-05T16:52:23.537Z,574.70
2023-05-05T16:55:31.649Z,518.90
2023-05-05T16:58:39.720Z,518.13
2023-05-05T17:01:47.757Z,559.10
2023-05-05T17:04:57.177Z,352.13
2023-05-05T17:08:05.590Z,504.27
2023-05-05T17:11:13.550Z,372.02
2023-05-05T17:14:21.690Z,412.85
2023-05-05T17:17:29.644Z,425.88
2023-05-05T17:20:39.158Z,340.05
2023-05-05T17:23:47.260Z,217.20
2023-05-05T17:26:55.276Z,174.50
2023-05-05T17:30:03.398Z,318.08
2023-05-05T17:33:11.367Z,417.30
2023-05-05T17:36:20.788Z,709.90
2023-05-05T17:39:28.675Z,242.68
2023-05-05T17:42:36.703Z,212.13
2023-05-05T17:45:44.650Z,36.90
2023-05-05T17:48:52.980Z,191.27
2023-05-05T17:52:02.628Z,255.75
2023-05-05T17:55:11.452Z,477.50
2023-05-05T17:58:19.629Z,180.88
2023-05-05T18:01:27.849Z,156.15
2023-05-05T18:04:37.264Z,163.35
2023-05-05T18:07:46.601Z,384.17
2023-05-05T18:10:54.977Z,94.28
2023-05-05T18:14:02.859Z,240.43
2023-05-05T18:17:10.545Z,110.50
2023-05-05T18:20:18.790Z,431.95
2023-05-05T18:23:27.998Z,511.73
2023-05-05T18:26:36.004Z,302.27
2023-05-05T18:29:44.072Z,305.00
2023-05-05T18:32:52.040Z,14.85
2023-05-05T18:35:59.921Z,33.80
2023-05-05T18:39:09.121Z,9.52
2023-05-05T18:42:17.217Z,72.15
2023-05-05T18:45:25.221Z,56.13
2023-05-05T18:48:33.454Z,64.95
2023-05-05T18:51:41.705Z,103.63
2023-05-05T18:54:51.174Z,514.45
2023-05-05T18:57:59.254Z,247.27
2023-05-05T19:01:07.400Z,368.88
2023-05-05T19:04:29.411Z,246.95
2023-05-05T19:07:38.544Z,340.77
2023-05-05T19:10:48.049Z,165.60
2023-05-05T19:13:56.209Z,215.35
2023-05-05T19:17:04.226Z,154.93
2023-05-05T19:20:12.725Z,212.50
2023-05-05T19:23:20.693Z,177.88
2023-05-05T19:26:30.320Z,44.25
2023-05-05T19:29:38.017Z,52.78
2023-05-05T19:32:46.103Z,2.30
2023-05-05T19:35:53.948Z,1.50
2023-05-05T19:39:01.862Z,1.42
2023-05-05T19:42:10.977Z,1.25
2023-05-05T19:45:19.390Z,1.60
2023-05-05T19:48:27.314Z,2.20
2023-05-05T19:51:35.637Z,1.40
2023-05-05T19:54:43.842Z,1.45
2023-05-05T19:57:53.412Z,2.13
2023-05-05T20:01:01.625Z,1.90
2023-05-05T20:04:09.990Z,1.55
2023-05-05T20:07:18.673Z,2.03
2023-05-05T20:10:26.994Z,12.02
2023-05-05T20:13:38.098Z,14.38
2023-05-05T20:16:45.892Z,215.82
2023-05-05T20:19:54.190Z,44.28
2023-05-05T20:23:02.040Z,289.95
2023-05-05T20:26:09.964Z,266.38
2023-05-05T20:29:20.156Z,290.88
2023-05-05T20:32:28.123Z,148.75
2023-05-05T20:35:35.975Z,174.25
2023-05-05T20:38:44.375Z,192.55
2023-05-05T20:41:52.518Z,102.45
2023-05-05T20:45:02.736Z,53.22
2023-05-05T20:48:11.415Z,43.00
2023-05-05T20:51:20.205Z,54.22
2023-05-05T20:54:32.643Z,59.85
2023-05-05T20:57:40.438Z,80.43
2023-05-05T21:00:49.526Z,101.05
2023-05-05T21:03:57.452Z,65.38
2023-05-05T21:07:05.638Z,130.77
2023-05-05T21:10:13.658Z,107.68
2023-05-05T21:13:21.809Z,60.85
2023-05-05T21:16:32.325Z,119.10
2023-05-05T21:19:41.093Z,134.70
2023-05-05T21:22:49.288Z,49.83
2023-05-05T21:25:57.498Z,24.70
2023-05-05T21:29:05.629Z,44.90
2023-05-05T21:32:14.832Z,149.98
2023-05-05T21:35:22.812Z,160.13
2023-05-05T21:38:30.771Z,238.98
2023-05-05T21:41:38.689Z,186.07
2023-05-05T21:44:46.569Z,187.32
2023-05-05T21:47:56.298Z,126.35
2023-05-05T21:51:04.741Z,103.35
2023-05-05T21:54:12.492Z,89.72
2023-05-05T21:57:20.707Z,111.40
2023-05-05T22:00:28.685Z,351.20
2023-05-05T22:03:38.460Z,220.10
2023-05-05T22:06:46.475Z,165.40
2023-05-05T22:09:54.661Z,43.83
2023-05-05T22:13:02.882Z,108.00
2023-05-05T22:16:10.838Z,118.35
2023-05-05T22:19:20.974Z,120.85
2023-05-05T22:22:28.821Z,116.70
2023-05-05T22:25:36.647Z,102.07
2023-05-05T22:28:44.747Z,102.05
2023-05-05T22:31:53.268Z,90.60
2023-05-05T22:35:02.591Z,124.72
2023-05-05T22:38:10.728Z,102.65
2023-05-05T22:41:18.667Z,118.72
2023-05-05T22:44:26.498Z,174.20
2023-05-05T22:47:34.534Z,419.05
2023-05-05T22:50:43.973Z,101.63
2023-05-05T22:53:51.810Z,44.22
2023-05-05T22:56:59.545Z,78.30
2023-05-05T23:00:08.806Z,96.75
2023-05-05T23:03:17.005Z,20.65
2023-05-05T23:06:27.763Z,9.32
2023-05-05T23:09:35.761Z,10.90
2023-05-05T23:12:43.648Z,46.63
2023-05-05T23:15:51.415Z,60.92
2023-05-05T23:18:59.400Z,66.20
2023-05-05T23:22:08.467Z,60.42
2023-05-05T23:25:16.259Z,89.05
2023-05-05T23:28:24.299Z,154.73
2023-05-05T23:31:32.279Z,123.72
2023-05-05T23:34:40.204Z,203.50
2023-05-05T23:37:49.814Z,323.67
2023-05-05T23:40:57.681Z,397.27
2023-05-05T23:44:06.046Z,332.30
2023-05-05T23:47:14.117Z,234.13
2023-05-05T23:50:22.470Z,278.15
2023-05-05T23:53:31.717Z,218.05
2023-05-05T23:56:40.730Z,337.63
2023-05-05T23:59:48.704Z,77.93
